createdAt,value
2022-09-28T00:00:48.151Z,11.64
2022-09-28T00:05:49.933Z,11.62
2022-09-28T00:10:56.133Z,11.62
2022-09-28T00:16:05.209Z,11.70
2022-09-28T00:21:15.645Z,11.75
2022-09-28T00:26:17.430Z,11.77
2022-09-28T00:31:19.383Z,11.76
2022-09-28T00:36:21.377Z,11.76
2022-09-28T00:41:24.814Z,11.74
2022-09-28T00:46:35.544Z,11.73
2022-09-28T00:51:41.261Z,11.70
2022-09-28T00:56:45.928Z,11.64
2022-09-28T01:01:49.448Z,11.60
2022-09-28T01:06:52.311Z,11.53
2022-09-28T01:11:55.274Z,11.53
2022-09-28T01:17:30.744Z,11.56
2022-09-28T01:23:00.387Z,11.54
2022-09-28T01:28:11.809Z,11.52
2022-09-28T01:33:25.031Z,11.58
2022-09-28T01:38:47.628Z,11.63
2022-09-28T01:43:56.161Z,11.66
2022-09-28T01:49:02.069Z,11.66
2022-09-28T01:54:12.829Z,11.73
2022-09-28T01:59:22.621Z,11.80
2022-09-28T02:04:35.272Z,11.80
2022-09-28T02:09:48.833Z,11.89
2022-09-28T02:14:59.739Z,11.92
2022-09-28T02:20:01.888Z,11.82
2022-09-28T02:25:09.146Z,11.75
2022-09-28T02:30:11.577Z,11.70
2022-09-28T02:35:17.592Z,11.65
2022-09-28T02:40:29.158Z,11.66
2022-09-28T02:46:02.161Z,11.75
2022-09-28T02:51:13.555Z,11.74
2022-09-28T02:56:31.305Z,11.64
2022-09-28T03:01:33.115Z,11.61
2022-09-28T03:06:43.720Z,11.54
2022-09-28T03:11:51.123Z,11.63
2022-09-28T03:16:53.595Z,11.71
2022-09-28T03:21:55.763Z,11.76
2022-09-28T03:26:57.615Z,11.76
2022-09-28T03:31:59.595Z,11.77
2022-09-28T03:37:01.641Z,11.72
2022-09-28T03:42:03.664Z,11.63
2022-09-28T03:47:09.579Z,11.60
2022-09-28T03:52:12.747Z,11.55
2022-09-28T03:57:14.549Z,11.54
2022-09-28T04:02:16.608Z,11.55
2022-09-28T04:07:18.432Z,11.49
2022-09-28T04:12:20.533Z,11.45
2022-09-28T04:17:23.139Z,11.60
2022-09-28T04:22:25.083Z,11.68
2022-09-28T04:27:45.479Z,11.71
2022-09-28T04:32:47.887Z,11.76
2022-09-28T04:37:49.826Z,11.76
2022-09-28T04:42:55.698Z,11.74
2022-09-28T04:47:58.158Z,11.69
2022-09-28T04:53:23.809Z,11.62
2022-09-28T04:58:26.156Z,11.57
2022-09-28T05:03:28.747Z,11.53
2022-09-28T05:08:43.648Z,11.46
2022-09-28T05:13:45.974Z,11.47
2022-09-28T05:18:55.174Z,11.51
2022-09-28T05:23:58.515Z,11.59
2022-09-28T05:29:01.265Z,11.67
2022-09-28T05:34:21.621Z,11.71
2022-09-28T05:39:23.596Z,11.72
2022-09-28T05:44:25.988Z,11.74
2022-09-28T05:49:31.704Z,11.73
2022-09-28T05:54:35.517Z,11.71
2022-09-28T05:59:37.481Z,11.72
2022-09-28T06:04:40.130Z,11.74
2022-09-28T06:09:42.015Z,11.75
2022-09-28T06:14:51.944Z,11.81
2022-09-28T06:19:53.866Z,11.86
2022-09-28T06:25:10.449Z,11.89
2022-09-28T06:30:14.126Z,11.87
2022-09-28T06:35:16.207Z,11.89
2022-09-28T06:40:19.197Z,11.96
2022-09-28T06:45:24.578Z,12.01
2022-09-28T06:50:45.078Z,12.07
2022-09-28T06:56:03.539Z,12.11
2022-09-28T07:01:05.873Z,12.18
2022-09-28T07:06:18.615Z,12.21
2022-09-28T07:11:44.838Z,12.24
2022-09-28T07:17:13.536Z,12.27
2022-09-28T07:22:19.402Z,12.27
2022-09-28T07:27:26.802Z,12.31
2022-09-28T07:32:45.810Z,12.37
2022-09-28T07:38:00.470Z,12.42
2022-09-28T07:43:06.950Z,12.49
2022-09-28T07:48:09.089Z,12.55
2022-09-28T07:53:43.349Z,12.54
2022-09-28T07:59:05.410Z,12.62
2022-09-28T08:04:25.691Z,12.56
2022-09-28T08:09:27.543Z,12.46
2022-09-28T08:15:01.369Z,12.45
2022-09-28T08:21:00.549Z,12.37
2022-09-28T08:26:03.278Z,12.24
2022-09-28T08:31:07.511Z,12.07
2022-09-28T08:36:35.178Z,11.99
2022-09-28T08:42:19.154Z,11.99
2022-09-28T08:48:29.686Z,11.96
2022-09-28T08:54:20.680Z,11.92
2022-09-28T08:59:43.749Z,11.98
2022-09-28T09:04:52.956Z,12.01
2022-09-28T09:10:25.081Z,11.82
2022-09-28T09:15:48.262Z,11.94
2022-09-28T09:21:15.637Z,12.15
2022-09-28T09:26:24.681Z,12.30
2022-09-28T09:31:53.091Z,12.35
2022-09-28T09:36:57.990Z,12.36
2022-09-28T09:43:03.530Z,12.41
2022-09-28T09:48:45.791Z,12.41
2022-09-28T09:53:53.276Z,12.38
2022-09-28T09:59:02.877Z,12.44
2022-09-28T10:04:26.881Z,12.49
2022-09-28T10:09:46.012Z,12.54
2022-09-28T10:15:07.959Z,12.67
2022-09-28T10:20:23.142Z,12.67
2022-09-28T10:25:44.626Z,12.72
2022-09-28T10:30:46.979Z,12.85
2022-09-28T10:35:49.270Z,12.97
2022-09-28T10:40:56.999Z,13.08
2022-09-28T10:46:14.243Z,13.13
2022-09-28T10:51:39.306Z,13.12
2022-09-28T10:56:48.050Z,13.21
2022-09-28T11:02:21.805Z,13.34
2022-09-28T11:07:32.535Z,13.43
2022-09-28T11:12:43.183Z,13.39
2022-09-28T11:17:45.478Z,13.25
2022-09-28T11:22:51.684Z,13.13
2022-09-28T11:27:59.312Z,13.02
2022-09-28T11:33:05.368Z,12.93
2022-09-28T11:38:41.002Z,12.85
2022-09-28T11:44:33.711Z,12.88
2022-09-28T11:49:50.289Z,12.76
2022-09-28T11:55:01.324Z,12.75
2022-09-28T12:00:13.265Z,12.71
2022-09-28T12:05:30.547Z,12.82
2022-09-28T12:10:39.405Z,12.87
2022-09-28T12:16:23.049Z,12.96
2022-09-28T12:21:40.873Z,13.35
2022-09-28T12:26:55.811Z,13.78
2022-09-28T12:32:18.707Z,13.77
2022-09-28T12:37:45.163Z,13.51
2022-09-28T12:43:05.754Z,13.31
2022-09-28T12:48:13.499Z,13.42
2022-09-28T12:53:41.785Z,13.58
2022-09-28T12:58:53.790Z,13.65
2022-09-28T13:03:58.391Z,13.46
2022-09-28T13:09:34.876Z,13.44
2022-09-28T13:15:05.613Z,13.39
2022-09-28T13:20:25.768Z,13.41
2022-09-28T13:25:31.288Z,13.53
2022-09-28T13:30:39.001Z,13.66
2022-09-28T13:35:44.414Z,13.61
2022-09-28T13:41:04.743Z,13.62
2022-09-28T13:46:20.474Z,13.60
2022-09-28T13:51:49.992Z,13.79
2022-09-28T13:57:09.994Z,13.94
2022-09-28T14:02:21.151Z,14.02
2022-09-28T14:12:45.298Z,13.67
2022-09-28T14:17:57.782Z,13.64
2022-09-28T14:23:27.344Z,13.66
2022-09-28T14:28:38.123Z,13.70
2022-09-28T14:33:42.809Z,13.54
2022-09-28T14:39:08.619Z,13.27
2022-09-28T14:44:12.858Z,12.97
2022-09-28T14:49:17.625Z,13.08
2022-09-28T14:54:25.606Z,13.29
2022-09-28T14:59:30.748Z,13.43
2022-09-28T15:04:39.405Z,13.51
2022-09-28T15:09:41.700Z,13.46
2022-09-28T15:14:47.820Z,13.39
2022-09-28T15:20:12.345Z,13.43
2022-09-28T15:25:20.609Z,13.45
2022-09-28T15:30:29.139Z,13.22
2022-09-28T15:35:31.025Z,13.07
2022-09-28T15:40:38.758Z,13.08
2022-09-28T15:45:40.718Z,13.14
2022-09-28T15:50:57.102Z,13.17
2022-09-28T15:56:05.724Z,13.12
2022-09-28T16:01:32.250Z,13.07
2022-09-28T16:06:34.315Z,13.10
2022-09-28T16:11:40.679Z,13.16
2022-09-28T16:16:51.317Z,13.11
2022-09-28T16:21:55.929Z,13.00
2022-09-28T16:27:23.200Z,12.94
2022-09-28T16:32:24.964Z,12.95
2022-09-28T16:37:31.934Z,13.03
2022-09-28T16:42:33.922Z,12.89
2022-09-28T16:47:36.079Z,12.92
2022-09-28T16:52:59.836Z,13.00
2022-09-28T16:58:04.721Z,13.16
2022-09-28T17:03:13.736Z,13.29
2022-09-28T17:08:22.298Z,13.25
2022-09-28T17:13:33.322Z,13.18
2022-09-28T17:18:39.227Z,13.24
2022-09-28T17:23:41.353Z,13.25
2022-09-28T17:28:43.146Z,13.19
2022-09-28T17:33:46.110Z,12.98
2022-09-28T17:38:49.630Z,12.87
2022-09-28T17:43:51.520Z,12.82
2022-09-28T17:48:54.360Z,12.89
2022-09-28T17:54:01.143Z,12.91
2022-09-28T17:59:06.067Z,12.90
2022-09-28T18:04:23.092Z,12.88
2022-09-28T18:09:34.459Z,12.82
2022-09-28T18:14:36.606Z,12.63
2022-09-28T18:19:38.808Z,12.40
2022-09-28T18:24:40.949Z,12.22
2022-09-28T18:29:43.247Z,11.97
2022-09-28T18:34:45.669Z,11.99
2022-09-28T18:39:47.817Z,12.09
2022-09-28T18:44:49.888Z,12.07
2022-09-28T18:49:52.042Z,11.97
2022-09-28T18:54:54.937Z,11.88
2022-09-28T18:59:57.207Z,11.78
2022-09-28T19:04:59.532Z,11.65
2022-09-28T19:10:01.766Z,11.65
2022-09-28T19:15:04.873Z,11.55
2022-09-28T19:20:07.395Z,11.59
2022-09-28T19:25:10.046Z,11.46
2022-09-28T19:30:12.715Z,11.38
2022-09-28T19:35:14.758Z,11.35
2022-09-28T19:40:16.718Z,11.41
2022-09-28T19:45:18.626Z,11.48
2022-09-28T19:50:20.474Z,11.37
2022-09-28T19:55:23.736Z,11.23
2022-09-28T20:00:25.762Z,11.11
2022-09-28T20:05:27.561Z,11.15
2022-09-28T20:10:29.603Z,11.12
2022-09-28T20:15:31.521Z,10.96
2022-09-28T20:20:33.373Z,11.01
2022-09-28T20:25:35.517Z,10.99
2022-09-28T20:30:37.432Z,10.88
2022-09-28T20:35:40.609Z,10.82
2022-09-28T20:40:42.472Z,10.79
2022-09-28T20:45:44.398Z,10.88
2022-09-28T20:50:46.177Z,11.04
2022-09-28T20:55:47.981Z,11.09
2022-09-28T21:00:49.797Z,11.18
2022-09-28T21:05:51.788Z,11.19
2022-09-28T21:10:54.371Z,11.21
2022-09-28T21:16:01.502Z,11.18
2022-09-28T21:21:09.334Z,11.12
2022-09-28T21:26:24.467Z,11.08
2022-09-28T21:31:29.698Z,11.04
2022-09-28T21:36:31.983Z,10.99
2022-09-28T21:41:33.869Z,10.97
2022-09-28T21:46:37.749Z,10.96
2022-09-28T21:51:39.651Z,10.96
2022-09-28T21:56:41.465Z,10.90
2022-09-28T22:01:44.376Z,10.90
2022-09-28T22:06:46.321Z,10.90
2022-09-28T22:11:49.234Z,10.89
2022-09-28T22:16:51.061Z,10.84
2022-09-28T22:21:52.875Z,10.78
2022-09-28T22:26:54.706Z,10.72
2022-09-28T22:32:02.191Z,10.69
2022-09-28T22:37:04.280Z,10.69
2022-09-28T22:42:06.178Z,10.55
2022-09-28T22:47:08.015Z,10.42
2022-09-28T22:52:09.809Z,10.49
2022-09-28T22:57:11.598Z,10.49
2022-09-28T23:02:13.421Z,10.58
2022-09-28T23:07:15.224Z,10.53
2022-09-28T23:12:17.245Z,10.53
2022-09-28T23:17:19.088Z,10.49
2022-09-28T23:22:20.905Z,10.57
2022-09-28T23:27:22.746Z,10.61
2022-09-28T23:32:28.543Z,10.51
2022-09-28T23:37:32.991Z,10.44
2022-09-28T23:42:35.578Z,10.35
2022-09-28T23:47:37.969Z,10.30
2022-09-28T23:52:39.790Z,10.29
2022-09-28T23:57:43.867Z,10.24
